<?xml version="1.0" encoding="UTF-8" standalone="no" ?>
<gpx xmlns="http://www.topografix.com/GPX/1/1" xmlns:xsi="http://www.w3.org/2001/XMLSchema-instance" xsi:schemaLocation="http://www.topografix.com/GPX/1/1 http://www.topografix.com/GPX/1/1/gpx.xsd" version="1.1" creator="VisuGPX - https://www.visugpx.com">
  <metadata>
    <name>Autour de Mornant</name>
  </metadata>
  <wpt lat="45.61614" lon="4.67058">
    <ele>337</ele>
    <name><![CDATA[Parking du campig.]]></name>
  </wpt>
  <wpt lat="45.61887" lon="4.6707">
    <ele>365</ele>
    <name><![CDATA[Mornant]]></name>
  </wpt>
  <wpt lat="45.61746" lon="4.63464">
    <ele>499</ele>
    <name><![CDATA[Sanctuaire et chapelle]]></name>
  </wpt>
  <wpt lat="45.60612" lon="4.6471">
    <ele>390</ele>
    <name><![CDATA[Lac de la Madone]]></name>
  </wpt>
  <wpt lat="45.61612" lon="4.67054">
    <ele>337</ele>
    <name><![CDATA[Campig]]></name>
  </wpt>
  <trk>
    <name><![CDATA[Autour de Mornant]]></name>
    <trkseg>
      <trkpt lat="45.61614" lon="4.67058">
        <ele>337</ele>
        <time>2020-12-28T19:23:29+01:00</time>
      </trkpt>
      <trkpt lat="45.6168" lon="4.67113">
        <ele>344</ele>
        <time>2020-12-28T19:23:34+01:00</time>
      </trkpt>
      <trkpt lat="45.61748" lon="4.6709">
        <ele>351</ele>
        <time>2020-12-28T19:23:39+01:00</time>
      </trkpt>
      <trkpt lat="45.61788" lon="4.67102">
        <ele>356</ele>
        <time>2020-12-28T19:23:44+01:00</time>
      </trkpt>
      <trkpt lat="45.61808" lon="4.67137">
        <ele>360</ele>
        <time>2020-12-28T19:23:49+01:00</time>
      </trkpt>
      <trkpt lat="45.61823" lon="4.6712">
        <ele>362</ele>
        <time>2020-12-28T19:23:54+01:00</time>
      </trkpt>
      <trkpt lat="45.61852" lon="4.67111">
        <ele>364</ele>
        <time>2020-12-28T19:23:59+01:00</time>
      </trkpt>
      <trkpt lat="45.61887" lon="4.6707">
        <ele>365</ele>
        <time>2020-12-28T19:24:04+01:00</time>
      </trkpt>
      <trkpt lat="45.6186" lon="4.67058">
        <ele>361</ele>
        <time>2020-12-28T19:24:09+01:00</time>
      </trkpt>
      <trkpt lat="45.61845" lon="4.67024">
        <ele>356</ele>
        <time>2020-12-28T19:24:14+01:00</time>
      </trkpt>
      <trkpt lat="45.61803" lon="4.67079">
        <ele>357</ele>
        <time>2020-12-28T19:24:19+01:00</time>
      </trkpt>
      <trkpt lat="45.6174" lon="4.66991">
        <ele>343</ele>
        <time>2020-12-28T19:24:24+01:00</time>
      </trkpt>
      <trkpt lat="45.61709" lon="4.66899">
        <ele>343</ele>
        <time>2020-12-28T19:24:29+01:00</time>
      </trkpt>
      <trkpt lat="45.61721" lon="4.66876">
        <ele>344</ele>
        <time>2020-12-28T19:24:34+01:00</time>
      </trkpt>
      <trkpt lat="45.61862" lon="4.66808">
        <ele>342</ele>
        <time>2020-12-28T19:24:39+01:00</time>
      </trkpt>
      <trkpt lat="45.61847" lon="4.66794">
        <ele>343</ele>
        <time>2020-12-28T19:24:44+01:00</time>
      </trkpt>
      <trkpt lat="45.61825" lon="4.66784">
        <ele>344</ele>
        <time>2020-12-28T19:24:49+01:00</time>
      </trkpt>
      <trkpt lat="45.61741" lon="4.66668">
        <ele>359</ele>
        <time>2020-12-28T19:24:54+01:00</time>
      </trkpt>
      <trkpt lat="45.61693" lon="4.66531">
        <ele>368</ele>
        <time>2020-12-28T19:24:59+01:00</time>
      </trkpt>
      <trkpt lat="45.61807" lon="4.66179">
        <ele>379</ele>
        <time>2020-12-28T19:25:04+01:00</time>
      </trkpt>
      <trkpt lat="45.6181" lon="4.65973">
        <ele>391</ele>
        <time>2020-12-28T19:25:09+01:00</time>
      </trkpt>
      <trkpt lat="45.61762" lon="4.65848">
        <ele>396</ele>
        <time>2020-12-28T19:25:14+01:00</time>
      </trkpt>
      <trkpt lat="45.61858" lon="4.65836">
        <ele>402</ele>
        <time>2020-12-28T19:25:19+01:00</time>
      </trkpt>
      <trkpt lat="45.619" lon="4.65737">
        <ele>407</ele>
        <time>2020-12-28T19:25:24+01:00</time>
      </trkpt>
      <trkpt lat="45.61942" lon="4.65505">
        <ele>409</ele>
        <time>2020-12-28T19:25:29+01:00</time>
      </trkpt>
      <trkpt lat="45.62041" lon="4.65205">
        <ele>409</ele>
        <time>2020-12-28T19:25:34+01:00</time>
      </trkpt>
      <trkpt lat="45.61972" lon="4.64857">
        <ele>419</ele>
        <time>2020-12-28T19:25:39+01:00</time>
      </trkpt>
      <trkpt lat="45.61906" lon="4.64552">
        <ele>427</ele>
        <time>2020-12-28T19:25:44+01:00</time>
      </trkpt>
      <trkpt lat="45.61828" lon="4.64522">
        <ele>430</ele>
        <time>2020-12-28T19:25:49+01:00</time>
      </trkpt>
      <trkpt lat="45.61786" lon="4.64372">
        <ele>442</ele>
        <time>2020-12-28T19:25:54+01:00</time>
      </trkpt>
      <trkpt lat="45.61789" lon="4.64209">
        <ele>452</ele>
        <time>2020-12-28T19:25:59+01:00</time>
      </trkpt>
      <trkpt lat="45.61756" lon="4.64033">
        <ele>462</ele>
        <time>2020-12-28T19:26:04+01:00</time>
      </trkpt>
      <trkpt lat="45.61924" lon="4.63879">
        <ele>487</ele>
        <time>2020-12-28T19:26:09+01:00</time>
      </trkpt>
      <trkpt lat="45.62041" lon="4.6396">
        <ele>495</ele>
        <time>2020-12-28T19:26:14+01:00</time>
      </trkpt>
      <trkpt lat="45.62083" lon="4.63986">
        <ele>496</ele>
        <time>2020-12-28T19:26:19+01:00</time>
      </trkpt>
      <trkpt lat="45.62086" lon="4.63926">
        <ele>503</ele>
        <time>2020-12-28T19:26:24+01:00</time>
      </trkpt>
      <trkpt lat="45.62296" lon="4.6393">
        <ele>506</ele>
        <time>2020-12-28T19:26:29+01:00</time>
      </trkpt>
      <trkpt lat="45.62338" lon="4.63883">
        <ele>507</ele>
        <time>2020-12-28T19:26:34+01:00</time>
      </trkpt>
      <trkpt lat="45.62371" lon="4.63707">
        <ele>514</ele>
        <time>2020-12-28T19:26:39+01:00</time>
      </trkpt>
      <trkpt lat="45.62428" lon="4.63643">
        <ele>514</ele>
        <time>2020-12-28T19:26:44+01:00</time>
      </trkpt>
      <trkpt lat="45.62449" lon="4.63484">
        <ele>524</ele>
        <time>2020-12-28T19:26:49+01:00</time>
      </trkpt>
      <trkpt lat="45.62491" lon="4.63441">
        <ele>520</ele>
        <time>2020-12-28T19:26:54+01:00</time>
      </trkpt>
      <trkpt lat="45.62572" lon="4.63488">
        <ele>514</ele>
        <time>2020-12-28T19:26:59+01:00</time>
      </trkpt>
      <trkpt lat="45.62659" lon="4.63694">
        <ele>483</ele>
        <time>2020-12-28T19:27:04+01:00</time>
      </trkpt>
      <trkpt lat="45.62656" lon="4.63733">
        <ele>479</ele>
        <time>2020-12-28T19:27:09+01:00</time>
      </trkpt>
      <trkpt lat="45.62764" lon="4.6387">
        <ele>454</ele>
        <time>2020-12-28T19:27:14+01:00</time>
      </trkpt>
      <trkpt lat="45.62875" lon="4.63952">
        <ele>434</ele>
        <time>2020-12-28T19:27:19+01:00</time>
      </trkpt>
      <trkpt lat="45.6289" lon="4.63947">
        <ele>432</ele>
        <time>2020-12-28T19:27:24+01:00</time>
      </trkpt>
      <trkpt lat="45.62938" lon="4.64037">
        <ele>428</ele>
        <time>2020-12-28T19:27:29+01:00</time>
      </trkpt>
      <trkpt lat="45.62977" lon="4.63977">
        <ele>429</ele>
        <time>2020-12-28T19:27:34+01:00</time>
      </trkpt>
      <trkpt lat="45.63073" lon="4.64012">
        <ele>437</ele>
        <time>2020-12-28T19:27:39+01:00</time>
      </trkpt>
      <trkpt lat="45.63097" lon="4.63917">
        <ele>441</ele>
        <time>2020-12-28T19:27:44+01:00</time>
      </trkpt>
      <trkpt lat="45.63073" lon="4.63857">
        <ele>444</ele>
        <time>2020-12-28T19:27:49+01:00</time>
      </trkpt>
      <trkpt lat="45.63205" lon="4.63707">
        <ele>464</ele>
        <time>2020-12-28T19:27:54+01:00</time>
      </trkpt>
      <trkpt lat="45.63148" lon="4.63488">
        <ele>473</ele>
        <time>2020-12-28T19:27:59+01:00</time>
      </trkpt>
      <trkpt lat="45.63118" lon="4.63291">
        <ele>487</ele>
        <time>2020-12-28T19:28:04+01:00</time>
      </trkpt>
      <trkpt lat="45.63061" lon="4.63192">
        <ele>483</ele>
        <time>2020-12-28T19:28:09+01:00</time>
      </trkpt>
      <trkpt lat="45.63118" lon="4.62999">
        <ele>482</ele>
        <time>2020-12-28T19:28:14+01:00</time>
      </trkpt>
      <trkpt lat="45.63085" lon="4.62896">
        <ele>477</ele>
        <time>2020-12-28T19:28:19+01:00</time>
      </trkpt>
      <trkpt lat="45.63094" lon="4.62746">
        <ele>490</ele>
        <time>2020-12-28T19:28:24+01:00</time>
      </trkpt>
      <trkpt lat="45.63067" lon="4.62651">
        <ele>493</ele>
        <time>2020-12-28T19:28:29+01:00</time>
      </trkpt>
      <trkpt lat="45.631" lon="4.62527">
        <ele>501</ele>
        <time>2020-12-28T19:28:34+01:00</time>
      </trkpt>
      <trkpt lat="45.63085" lon="4.62385">
        <ele>510</ele>
        <time>2020-12-28T19:28:39+01:00</time>
      </trkpt>
      <trkpt lat="45.63052" lon="4.62261">
        <ele>518</ele>
        <time>2020-12-28T19:28:44+01:00</time>
      </trkpt>
      <trkpt lat="45.63091" lon="4.62102">
        <ele>531</ele>
        <time>2020-12-28T19:28:49+01:00</time>
      </trkpt>
      <trkpt lat="45.6304" lon="4.62029">
        <ele>537</ele>
        <time>2020-12-28T19:28:54+01:00</time>
      </trkpt>
      <trkpt lat="45.63022" lon="4.61797">
        <ele>557</ele>
        <time>2020-12-28T19:28:59+01:00</time>
      </trkpt>
      <trkpt lat="45.63157" lon="4.61857">
        <ele>558</ele>
        <time>2020-12-28T19:29:04+01:00</time>
      </trkpt>
      <trkpt lat="45.63157" lon="4.61776">
        <ele>567</ele>
        <time>2020-12-28T19:29:09+01:00</time>
      </trkpt>
      <trkpt lat="45.6313" lon="4.61763">
        <ele>565</ele>
        <time>2020-12-28T19:29:14+01:00</time>
      </trkpt>
      <trkpt lat="45.63091" lon="4.61668">
        <ele>566</ele>
        <time>2020-12-28T19:29:19+01:00</time>
      </trkpt>
      <trkpt lat="45.63016" lon="4.61651">
        <ele>571</ele>
        <time>2020-12-28T19:29:24+01:00</time>
      </trkpt>
      <trkpt lat="45.62884" lon="4.61947">
        <ele>569</ele>
        <time>2020-12-28T19:29:29+01:00</time>
      </trkpt>
      <trkpt lat="45.62824" lon="4.61986">
        <ele>577</ele>
        <time>2020-12-28T19:29:34+01:00</time>
      </trkpt>
      <trkpt lat="45.62719" lon="4.619">
        <ele>595</ele>
        <time>2020-12-28T19:29:39+01:00</time>
      </trkpt>
      <trkpt lat="45.62629" lon="4.61651">
        <ele>610</ele>
        <time>2020-12-28T19:29:44+01:00</time>
      </trkpt>
      <trkpt lat="45.62635" lon="4.61565">
        <ele>626</ele>
        <time>2020-12-28T19:29:49+01:00</time>
      </trkpt>
      <trkpt lat="45.62581" lon="4.61523">
        <ele>627</ele>
        <time>2020-12-28T19:29:54+01:00</time>
      </trkpt>
      <trkpt lat="45.62425" lon="4.616">
        <ele>613</ele>
        <time>2020-12-28T19:29:59+01:00</time>
      </trkpt>
      <trkpt lat="45.62437" lon="4.61677">
        <ele>596</ele>
        <time>2020-12-28T19:30:04+01:00</time>
      </trkpt>
      <trkpt lat="45.62389" lon="4.6172">
        <ele>589</ele>
        <time>2020-12-28T19:30:09+01:00</time>
      </trkpt>
      <trkpt lat="45.62359" lon="4.61711">
        <ele>591</ele>
        <time>2020-12-28T19:30:14+01:00</time>
      </trkpt>
      <trkpt lat="45.62254" lon="4.61754">
        <ele>585</ele>
        <time>2020-12-28T19:30:19+01:00</time>
      </trkpt>
      <trkpt lat="45.62275" lon="4.61857">
        <ele>572</ele>
        <time>2020-12-28T19:30:24+01:00</time>
      </trkpt>
      <trkpt lat="45.62224" lon="4.61879">
        <ele>571</ele>
        <time>2020-12-28T19:30:29+01:00</time>
      </trkpt>
      <trkpt lat="45.62236" lon="4.61965">
        <ele>561</ele>
        <time>2020-12-28T19:30:34+01:00</time>
      </trkpt>
      <trkpt lat="45.62117" lon="4.61983">
        <ele>559</ele>
        <time>2020-12-28T19:30:39+01:00</time>
      </trkpt>
      <trkpt lat="45.61946" lon="4.62481">
        <ele>569</ele>
        <time>2020-12-28T19:30:44+01:00</time>
      </trkpt>
      <trkpt lat="45.61795" lon="4.62474">
        <ele>562</ele>
        <time>2020-12-28T19:30:49+01:00</time>
      </trkpt>
      <trkpt lat="45.61612" lon="4.62395">
        <ele>547</ele>
        <time>2020-12-28T19:30:54+01:00</time>
      </trkpt>
      <trkpt lat="45.61552" lon="4.6247">
        <ele>526</ele>
        <time>2020-12-28T19:30:59+01:00</time>
      </trkpt>
      <trkpt lat="45.61643" lon="4.62543">
        <ele>528</ele>
        <time>2020-12-28T19:31:04+01:00</time>
      </trkpt>
      <trkpt lat="45.61676" lon="4.6273">
        <ele>522</ele>
        <time>2020-12-28T19:31:09+01:00</time>
      </trkpt>
      <trkpt lat="45.61634" lon="4.62678">
        <ele>514</ele>
        <time>2020-12-28T19:31:14+01:00</time>
      </trkpt>
      <trkpt lat="45.61612" lon="4.62571">
        <ele>518</ele>
        <time>2020-12-28T19:31:19+01:00</time>
      </trkpt>
      <trkpt lat="45.61517" lon="4.62569">
        <ele>508</ele>
        <time>2020-12-28T19:31:24+01:00</time>
      </trkpt>
      <trkpt lat="45.6146" lon="4.62601">
        <ele>500</ele>
        <time>2020-12-28T19:31:29+01:00</time>
      </trkpt>
      <trkpt lat="45.61428" lon="4.62588">
        <ele>499</ele>
        <time>2020-12-28T19:31:34+01:00</time>
      </trkpt>
      <trkpt lat="45.61365" lon="4.62667">
        <ele>486</ele>
        <time>2020-12-28T19:31:39+01:00</time>
      </trkpt>
      <trkpt lat="45.6131" lon="4.6276">
        <ele>476</ele>
        <time>2020-12-28T19:31:44+01:00</time>
      </trkpt>
      <trkpt lat="45.61352" lon="4.62865">
        <ele>471</ele>
        <time>2020-12-28T19:31:49+01:00</time>
      </trkpt>
      <trkpt lat="45.61401" lon="4.62888">
        <ele>472</ele>
        <time>2020-12-28T19:31:54+01:00</time>
      </trkpt>
      <trkpt lat="45.61406" lon="4.63026">
        <ele>470</ele>
        <time>2020-12-28T19:31:59+01:00</time>
      </trkpt>
      <trkpt lat="45.61498" lon="4.6324">
        <ele>471</ele>
        <time>2020-12-28T19:32:04+01:00</time>
      </trkpt>
      <trkpt lat="45.61625" lon="4.63384">
        <ele>474</ele>
        <time>2020-12-28T19:32:09+01:00</time>
      </trkpt>
      <trkpt lat="45.61718" lon="4.63542">
        <ele>490</ele>
        <time>2020-12-28T19:32:14+01:00</time>
      </trkpt>
      <trkpt lat="45.61746" lon="4.63464">
        <ele>499</ele>
        <time>2020-12-28T19:32:19+01:00</time>
      </trkpt>
      <trkpt lat="45.61706" lon="4.63573">
        <ele>486</ele>
        <time>2020-12-28T19:32:24+01:00</time>
      </trkpt>
      <trkpt lat="45.61717" lon="4.63606">
        <ele>486</ele>
        <time>2020-12-28T19:32:29+01:00</time>
      </trkpt>
      <trkpt lat="45.61628" lon="4.63758">
        <ele>463</ele>
        <time>2020-12-28T19:32:34+01:00</time>
      </trkpt>
      <trkpt lat="45.61676" lon="4.63874">
        <ele>463</ele>
        <time>2020-12-28T19:32:39+01:00</time>
      </trkpt>
      <trkpt lat="45.61652" lon="4.64076">
        <ele>458</ele>
        <time>2020-12-28T19:32:44+01:00</time>
      </trkpt>
      <trkpt lat="45.61574" lon="4.64333">
        <ele>448</ele>
        <time>2020-12-28T19:32:49+01:00</time>
      </trkpt>
      <trkpt lat="45.61457" lon="4.6457">
        <ele>433</ele>
        <time>2020-12-28T19:32:54+01:00</time>
      </trkpt>
      <trkpt lat="45.61316" lon="4.64737">
        <ele>422</ele>
        <time>2020-12-28T19:32:59+01:00</time>
      </trkpt>
      <trkpt lat="45.61284" lon="4.64705">
        <ele>421</ele>
        <time>2020-12-28T19:33:04+01:00</time>
      </trkpt>
      <trkpt lat="45.61236" lon="4.64658">
        <ele>417</ele>
        <time>2020-12-28T19:33:09+01:00</time>
      </trkpt>
      <trkpt lat="45.61188" lon="4.64572">
        <ele>417</ele>
        <time>2020-12-28T19:33:14+01:00</time>
      </trkpt>
      <trkpt lat="45.6116" lon="4.64572">
        <ele>416</ele>
        <time>2020-12-28T19:33:19+01:00</time>
      </trkpt>
      <trkpt lat="45.61118" lon="4.64486">
        <ele>417</ele>
        <time>2020-12-28T19:33:24+01:00</time>
      </trkpt>
      <trkpt lat="45.61076" lon="4.64456">
        <ele>411</ele>
        <time>2020-12-28T19:33:29+01:00</time>
      </trkpt>
      <trkpt lat="45.61046" lon="4.6443">
        <ele>406</ele>
        <time>2020-12-28T19:33:34+01:00</time>
      </trkpt>
      <trkpt lat="45.61016" lon="4.6443">
        <ele>401</ele>
        <time>2020-12-28T19:33:39+01:00</time>
      </trkpt>
      <trkpt lat="45.61028" lon="4.64434">
        <ele>403</ele>
        <time>2020-12-28T19:33:44+01:00</time>
      </trkpt>
      <trkpt lat="45.61007" lon="4.64404">
        <ele>399</ele>
        <time>2020-12-28T19:33:49+01:00</time>
      </trkpt>
      <trkpt lat="45.61023" lon="4.64415">
        <ele>402</ele>
        <time>2020-12-28T19:33:54+01:00</time>
      </trkpt>
      <trkpt lat="45.60973" lon="4.64358">
        <ele>399</ele>
        <time>2020-12-28T19:33:59+01:00</time>
      </trkpt>
      <trkpt lat="45.6097" lon="4.64311">
        <ele>401</ele>
        <time>2020-12-28T19:34:04+01:00</time>
      </trkpt>
      <trkpt lat="45.60919" lon="4.64335">
        <ele>403</ele>
        <time>2020-12-28T19:34:09+01:00</time>
      </trkpt>
      <trkpt lat="45.60805" lon="4.64566">
        <ele>393</ele>
        <time>2020-12-28T19:34:14+01:00</time>
      </trkpt>
      <trkpt lat="45.60692" lon="4.64644">
        <ele>391</ele>
        <time>2020-12-28T19:34:19+01:00</time>
      </trkpt>
      <trkpt lat="45.60612" lon="4.6471">
        <ele>390</ele>
        <time>2020-12-28T19:34:24+01:00</time>
      </trkpt>
      <trkpt lat="45.60721" lon="4.64916">
        <ele>388</ele>
        <time>2020-12-28T19:34:29+01:00</time>
      </trkpt>
      <trkpt lat="45.60773" lon="4.64867">
        <ele>392</ele>
        <time>2020-12-28T19:34:34+01:00</time>
      </trkpt>
      <trkpt lat="45.60812" lon="4.64933">
        <ele>400</ele>
        <time>2020-12-28T19:34:39+01:00</time>
      </trkpt>
      <trkpt lat="45.6081" lon="4.64999">
        <ele>403</ele>
        <time>2020-12-28T19:34:44+01:00</time>
      </trkpt>
      <trkpt lat="45.60927" lon="4.65059">
        <ele>410</ele>
        <time>2020-12-28T19:34:49+01:00</time>
      </trkpt>
      <trkpt lat="45.60969" lon="4.65042">
        <ele>413</ele>
        <time>2020-12-28T19:34:54+01:00</time>
      </trkpt>
      <trkpt lat="45.61143" lon="4.65145">
        <ele>413</ele>
        <time>2020-12-28T19:34:59+01:00</time>
      </trkpt>
      <trkpt lat="45.60912" lon="4.65664">
        <ele>391</ele>
        <time>2020-12-28T19:35:04+01:00</time>
      </trkpt>
      <trkpt lat="45.60786" lon="4.66089">
        <ele>387</ele>
        <time>2020-12-28T19:35:09+01:00</time>
      </trkpt>
      <trkpt lat="45.60723" lon="4.66505">
        <ele>376</ele>
        <time>2020-12-28T19:35:14+01:00</time>
      </trkpt>
      <trkpt lat="45.60843" lon="4.66608">
        <ele>372</ele>
        <time>2020-12-28T19:35:19+01:00</time>
      </trkpt>
      <trkpt lat="45.61128" lon="4.66977">
        <ele>359</ele>
        <time>2020-12-28T19:35:24+01:00</time>
      </trkpt>
      <trkpt lat="45.61314" lon="4.66981">
        <ele>346</ele>
        <time>2020-12-28T19:35:29+01:00</time>
      </trkpt>
      <trkpt lat="45.61441" lon="4.66938">
        <ele>341</ele>
        <time>2020-12-28T19:35:34+01:00</time>
      </trkpt>
      <trkpt lat="45.61483" lon="4.66999">
        <ele>336</ele>
        <time>2020-12-28T19:35:39+01:00</time>
      </trkpt>
      <trkpt lat="45.61537" lon="4.66994">
        <ele>336</ele>
        <time>2020-12-28T19:35:44+01:00</time>
      </trkpt>
      <trkpt lat="45.61612" lon="4.67054">
        <ele>337</ele>
        <time>2020-12-28T19:35:49+01:00</time>
      </trkpt>
    </trkseg>
  </trk>
</gpx>